Latest Weather Observations for South Johnstone

IDQ60801

Issued at 10:02 pm EST Friday 12 February 2016 (issued every 30 minutes, with the page automatically refreshed every 10 minutes)

About weather observations | Map of weather stations | Latest weather observations for QLD | Other Formats
Station Details ID: 032037 Name: SOUTH JOHNSTONE EXP STN Lat: -17.61 Lon: 146.00 Height: 18.3 m
Data from the previous 72 hours. | See also: Recent months at South Johnstone
Date/Time
EST
Temp
°C
App
Temp
°C
Dew
Point
Rel
Hum
%
Delta-T
°C
Wind Press
QNH
hPa
Press
MSL
hPa
Rain
since 9 am
mm
Dir
 
Spd
km/h
Gust
km/h
Spd
kts
Gust
kts
12/10:00pm 23.3 27.7 22.1 93 0.8 W 2 7 1 4 1009.7 - 0.0
12/09:30pm 23.5 27.0 22.2 92 0.9 W 7 13 4 7 1009.4 - 0.0
12/09:00pm 23.9 27.1 22.3 91 1.1 WSW 9 13 5 7 1009.3 1009.2 0.0
12/08:30pm 24.3 28.2 22.5 90 1.2 W 6 11 3 6 1009.0 - 0.0
12/08:00pm 24.9 30.0 22.7 87 1.5 CALM 0 0 0 0 1008.7 - 0.0
12/07:30pm 25.8 31.1 23.0 84 1.9 CALM 0 0 0 0 1008.3 - 0.0
12/07:00pm 26.8 31.9 22.7 78 2.8 CALM 0 0 0 0 1008.0 - 0.0
12/06:30pm 27.8 32.5 22.0 70 3.9 CALM 0 0 0 0 1007.8 - 0.0
12/06:00pm 28.9 32.8 21.8 65 4.8 S 4 9 2 5 1007.4 1007.3 0.0
12/05:30pm 29.5 32.4 21.8 63 5.2 SE 9 13 5 7 1007.3 - 0.0
12/05:00pm 30.3 31.5 20.0 54 6.8 SE 13 19 7 10 1007.0 - 0.0
12/04:30pm 30.6 31.9 20.2 53 6.9 SSE 13 24 7 13 1006.7 - 0.0
12/04:00pm 31.2 32.3 20.5 53 7.1 SE 15 22 8 12 1006.5 - 0.0
12/03:30pm 31.2 32.0 19.8 50 7.5 SE 15 22 8 12 1006.6 - 0.0
12/03:00pm 31.1 32.1 20.3 52 7.2 ESE 15 22 8 12 1006.7 1006.6 0.0
12/02:30pm 31.2 31.8 20.2 52 7.3 ESE 17 26 9 14 1007.0 - 0.0
12/02:00pm 31.4 33.1 21.0 54 7.0 ESE 13 20 7 11 1007.3 - 0.0
12/01:30pm 31.2 33.0 21.2 55 6.7 ESE 13 20 7 11 1007.6 - 0.0
12/01:00pm 31.0 33.2 21.2 56 6.6 ESE 11 20 6 11 1007.9 - 0.0
12/12:30pm 30.7 32.4 21.7 58 6.1 ESE 15 24 8 13 1008.6 - 0.0
12/12:00pm 31.3 33.5 21.9 57 6.4 ESE 13 20 7 11 1009.2 1009.1 0.0
12/11:30am 31.1 33.4 21.3 56 6.6 ESE 11 17 6 9 1009.6 - 0.0
12/11:00am 30.6 32.6 21.5 58 6.1 ESE 13 19 7 10 1009.9 - 0.0
12/10:30am 30.1 32.5 22.3 63 5.3 S 13 17 7 9 1010.1 - 0.0
12/10:00am 29.8 33.4 22.3 64 5.1 SE 7 13 4 7 1010.3 - 0.0
12/09:30am 29.6 33.1 22.2 64 5.0 SE 7 15 4 8 1010.6 - 0.0
12/09:00am 28.5 34.0 24.0 76 3.1 SW 2 9 1 5 1010.8 1010.7 0.0
12/08:30am 27.0 30.7 22.6 77 3.0 WSW 7 11 4 6 1010.8 - 0.0
12/08:00am 25.3 28.8 22.9 86 1.6 WSW 9 11 5 6 1010.5 - 0.0
12/07:30am 23.8 27.3 22.2 91 1.1 W 7 11 4 6 1010.4 - 0.0
12/07:00am 22.7 26.2 21.8 95 0.6 W 6 9 3 5 1010.1 - 0.0
12/06:30am 22.3 26.8 21.5 95 0.5 CALM 0 6 0 3 1009.7 - 0.0
12/06:00am 22.4 25.2 21.6 95 0.5 WSW 9 13 5 7 1009.4 1009.3 0.0
12/05:30am 22.5 26.0 21.9 96 0.4 W 6 9 3 5 1009.2 - 0.0
12/05:00am 22.6 26.2 22.0 96 0.4 W 6 9 3 5 1009.0 - 0.0
12/04:30am 22.7 25.8 22.1 96 0.4 WSW 9 11 5 6 1008.7 - 0.0
12/04:00am 22.9 26.6 22.3 96 0.4 W 6 11 3 6 1008.6 - 0.0
12/03:30am 23.2 26.1 22.5 96 0.5 WSW 11 13 6 7 1008.5 - 0.0
12/03:00am 23.3 26.5 22.4 95 0.6 WSW 9 11 5 6 1008.3 1008.2 0.0
12/02:30am 23.5 27.0 22.8 96 0.5 WSW 9 11 5 6 1008.5 - 0.0
12/02:00am 23.6 27.1 22.9 96 0.5 WSW 9 13 5 7 1008.5 - 0.0
12/01:30am 23.8 28.0 23.1 96 0.5 WSW 6 11 3 6 1008.9 - 0.0
12/01:00am 24.1 28.3 23.4 96 0.5 WSW 7 11 4 6 1009.0 - 0.0
12/12:30am 24.3 29.8 23.4 95 0.6 CALM 0 0 0 0 1009.3 - 0.0
12/12:00am 24.3 29.8 23.4 95 0.6 CALM 0 0 0 0 1009.6 1009.5 0.0
 
Date/Time
EST
Temp
°C
App
Temp
°C
Dew
Point
Rel
Hum
%
Delta-T
°C
Wind Press
QNH
hPa
Press
MSL
hPa
Rain
since 9 am
mm
Dir
 
Spd
km/h
Gust
km/h
Spd
kts
Gust
kts
11/11:30pm 24.4 29.6 23.5 95 0.6 W 2 11 1 6 1009.8 - 0.0
11/11:00pm 24.6 29.1 23.7 95 0.6 W 6 7 3 4 1010.0 - 0.0
11/10:30pm 24.6 28.4 23.4 93 0.8 WSW 9 11 5 6 1010.0 - 0.0
11/10:00pm 24.7 28.9 23.5 93 0.8 WSW 7 9 4 5 1010.1 - 0.0
11/09:30pm 24.8 29.1 23.6 93 0.8 WSW 7 11 4 6 1009.9 - 0.0
11/09:00pm 25.0 29.3 23.7 92 0.9 WSW 7 9 4 5 1009.8 1009.7 0.0
11/08:30pm 25.6 29.9 23.7 89 1.3 SW 7 9 4 5 1009.6 - 0.0
11/08:00pm 25.9 30.4 23.9 89 1.4 WSW 7 9 4 5 1009.2 - 0.0
11/07:30pm 27.0 31.3 22.7 77 2.9 SSW 4 9 2 5 1008.9 - 0.0
11/07:00pm 26.9 32.4 23.4 81 2.4 CALM 0 0 0 0 1008.6 - 0.0
11/06:30pm 27.6 31.6 22.7 74 3.3 SSW 6 11 3 6 1008.2 - 0.0
11/06:00pm 27.7 31.8 22.9 75 3.3 SSW 6 9 3 5 1007.9 1007.8 0.0
11/05:30pm 27.9 31.4 22.8 74 3.5 SSE 9 13 5 7 1007.7 - 0.0
11/05:00pm 28.0 31.3 22.5 72 3.7 ESE 9 15 5 8 1007.4 - 0.0
11/04:30pm 28.4 30.7 22.0 68 4.3 SSE 13 19 7 10 1007.4 - 0.0
11/04:00pm 28.4 30.9 22.5 70 4.0 SE 13 20 7 11 1007.2 - 0.0
11/03:30pm 28.4 30.7 22.7 71 3.9 SE 15 22 8 12 1007.5 - 0.0
11/03:00pm 28.3 30.0 22.4 70 4.0 SE 17 26 9 14 1007.6 1007.5 0.0
11/02:30pm 28.6 32.3 23.2 72 3.7 SSE 9 17 5 9 1007.5 - 0.0
11/02:00pm 27.2 30.0 22.3 74 3.3 S 11 19 6 10 1007.9 - 0.0
11/01:30pm 27.9 30.6 22.9 74 3.4 S 13 24 7 13 1008.1 - 0.0
11/01:00pm 29.7 32.9 23.1 67 4.5 S 11 19 6 10 1008.4 - 0.0
11/12:30pm 28.6 31.0 22.2 68 4.3 S 13 19 7 10 1008.7 - 0.0
11/12:00pm 28.9 31.8 22.4 68 4.4 S 11 17 6 9 1009.0 1008.9 0.0
11/11:30am 28.1 31.7 23.0 74 3.5 SSW 9 13 5 7 1009.5 - 0.0
11/11:00am 27.0 28.7 22.4 76 3.1 SSW 17 24 9 13 1009.7 - 0.0
11/10:30am 27.8 30.2 23.0 75 3.3 S 15 24 8 13 1009.8 - 0.0
11/10:00am 28.1 30.4 22.8 73 3.6 SSE 15 24 8 13 1009.8 - 0.0
11/09:30am 29.1 33.3 24.1 74 3.5 SSE 9 17 5 9 1009.7 - 0.0
11/09:00am 28.1 34.6 25.1 84 2.1 CALM 0 6 0 3 1009.9 1009.8 7.8
11/08:30am 26.8 33.3 25.1 90 1.2 CALM 0 0 0 0 1009.8 - 7.8
11/08:00am 26.3 32.1 24.6 90 1.2 SSW 2 7 1 4 1009.5 - 7.8
11/07:30am 25.4 31.7 24.7 96 0.5 CALM 0 0 0 0 1009.2 - 7.8
11/07:00am 24.2 28.8 23.8 98 0.3 W 6 9 3 5 1008.8 - 7.8
11/06:30am 23.8 29.4 23.5 98 0.2 CALM 0 4 0 2 1008.7 - 7.8
11/06:00am 23.7 28.4 23.4 98 0.2 W 4 11 2 6 1008.3 1008.2 7.8
11/05:30am 23.7 27.8 23.3 98 0.3 W 7 9 4 5 1007.8 - 7.8
11/05:00am 23.6 28.7 23.3 98 0.2 W 2 7 1 4 1007.7 - 7.8
11/04:30am 23.7 27.9 23.4 98 0.2 WSW 7 13 4 7 1007.4 - 7.8
11/04:00am 23.8 29.4 23.5 98 0.2 CALM 0 0 0 0 1007.4 - 7.8
11/03:30am 23.8 28.5 23.4 98 0.3 SW 4 9 2 5 1007.3 - 7.8
11/03:00am 23.8 29.4 23.5 98 0.2 CALM 0 0 0 0 1007.3 1007.2 7.8
11/02:30am 23.7 29.2 23.4 98 0.2 CALM 0 6 0 3 1007.4 - 7.8
11/02:00am 23.8 29.4 23.5 98 0.2 CALM 0 0 0 0 1007.4 - 7.8
11/01:30am 23.9 29.5 23.5 98 0.3 CALM 0 6 0 3 1007.8 - 7.8
11/01:00am 23.8 29.4 23.5 98 0.2 CALM 0 0 0 0 1008.1 - 7.8
11/12:30am 23.8 29.4 23.5 98 0.2 CALM 0 0 0 0 1008.4 - 7.8
11/12:00am 24.1 29.8 23.7 98 0.3 CALM 0 0 0 0 1008.8 1008.7 7.8
 
Date/Time
EST
Temp
°C
App
Temp
°C
Dew
Point
Rel
Hum
%
Delta-T
°C
Wind Press
QNH
hPa
Press
MSL
hPa
Rain
since 9 am
mm
Dir
 
Spd
km/h
Gust
km/h
Spd
kts
Gust
kts
10/11:30pm 24.1 29.4 23.7 98 0.3 WNW 2 7 1 4 1009.2 - 7.8
10/11:00pm 23.9 28.4 23.6 98 0.2 W 6 9 3 5 1009.5 - 7.6
10/10:30pm 24.1 29.8 23.7 98 0.3 CALM 0 6 0 3 1009.5 - 7.6
10/10:00pm 24.1 29.5 23.8 98 0.2 W 2 9 1 5 1009.6 - 7.6
10/09:30pm 24.1 28.4 23.7 98 0.3 WSW 7 11 4 6 1009.3 - 7.6
10/09:00pm 24.3 29.6 23.7 96 0.4 WNW 2 7 1 4 1009.1 1009.0 7.6
10/08:30pm 24.3 28.6 23.7 96 0.4 WSW 7 9 4 5 1009.1 - 7.6
10/08:00pm 24.4 29.7 23.7 96 0.5 W 2 7 1 4 1009.1 - 7.6
10/07:30pm 24.7 30.5 24.0 96 0.5 CALM 0 0 0 0 1008.8 - 7.6
10/07:00pm 24.8 30.5 23.8 94 0.7 CALM 0 0 0 0 1008.4 - 7.6
10/06:30pm 25.1 30.5 23.9 93 0.8 W 2 7 1 4 1008.3 - 7.6
10/06:00pm 25.4 31.1 24.4 94 0.7 W 2 7 1 4 1007.7 1007.6 7.6
10/05:30pm 25.9 32.5 25.2 96 0.5 CALM 0 0 0 0 1007.4 - 7.6
10/05:00pm 25.6 31.9 24.7 95 0.6 CALM 0 0 0 0 1007.0 - 7.6
10/04:30pm 25.7 31.3 24.8 95 0.6 NNW 4 11 2 6 1007.0 - 7.6
10/04:00pm 25.3 30.0 24.3 94 0.7 SW 7 15 4 8 1007.0 - 7.4
10/03:30pm 25.1 30.7 24.2 95 0.6 S 2 7 1 4 1007.1 - 7.2
10/03:00pm 24.5 28.4 22.9 91 1.1 SE 7 17 4 9 1007.3 1007.2 6.8
10/02:30pm 26.9 31.3 24.5 87 1.7 S 9 19 5 10 1007.3 - 4.2
10/02:00pm 26.3 31.1 24.4 89 1.3 SSW 7 11 4 6 1007.7 - 4.2
10/01:30pm 25.8 28.1 23.5 87 1.6 S 17 24 9 13 1008.0 - 3.6
10/01:00pm 27.2 29.0 23.3 79 2.7 SSE 19 30 10 16 1008.3 - 3.6
10/12:30pm 28.2 30.1 23.5 75 3.2 S 19 24 10 13 1008.5 - 3.6
10/12:00pm 26.8 31.4 24.8 89 1.4 SW 9 15 5 8 1008.9 1008.8 3.6
10/11:30am 25.7 29.0 23.8 89 1.3 SSW 13 19 7 10 1009.3 - 3.6
10/11:00am 26.5 30.5 23.7 84 1.9 SW 9 17 5 9 1009.4 - 2.8
10/10:30am 24.9 28.7 24.0 95 0.6 SW 11 15 6 8 1009.8 - 2.8
10/10:00am 25.0 30.1 24.1 95 0.6 W 4 9 2 5 1010.1 - 2.0
10/09:30am 24.6 28.8 23.4 93 0.8 SSE 7 19 4 10 1010.3 - 1.8
10/09:00am 25.5 28.5 23.4 88 1.4 SSW 13 20 7 11 1010.1 1010.0 6.8
10/08:30am 25.4 28.2 23.0 86 1.6 SSW 13 22 7 12 1009.9 - 6.8
10/08:00am 25.1 28.9 23.5 91 1.1 SW 9 13 5 7 1009.4 - 6.8
10/07:30am 24.6 28.0 23.3 92 0.9 S 11 19 6 10 1009.3 - 6.8
10/07:00am 24.5 29.2 23.9 96 0.4 WSW 6 11 3 6 1008.7 - 5.2
10/06:30am 24.2 28.5 23.6 96 0.4 WSW 7 11 4 6 1008.1 - 5.2
10/06:00am 24.3 29.9 23.6 96 0.5 CALM 0 7 0 4 1007.9 1007.8 5.2
10/05:30am 24.4 27.6 23.1 92 0.9 SW 11 15 6 8 1007.6 - 5.2
10/05:00am 24.4 28.5 22.9 91 1.0 SSW 6 11 3 6 1007.3 - 5.2
10/04:30am 25.0 29.9 23.7 92 0.9 WNW 4 9 2 5 1007.3 - 4.2
10/04:00am 25.2 30.9 23.7 91 1.0 CALM 0 6 0 3 1007.3 - 4.2
10/03:30am 25.0 30.6 24.3 96 0.5 WNW 2 6 1 3 1007.4 - 4.0
10/03:00am 25.1 30.2 24.1 94 0.7 WSW 4 7 2 4 1007.4 1007.3 4.0
10/02:30am 25.2 31.2 24.2 94 0.7 CALM 0 0 0 0 1007.5 - 4.0
10/02:00am 25.4 30.1 23.9 91 1.0 WNW 6 7 3 4 1007.6 - 3.8
10/01:30am 25.6 31.4 24.0 91 1.1 CALM 0 0 0 0 1007.8 - 3.8
10/01:00am 26.0 31.7 23.8 88 1.5 CALM 0 0 0 0 1008.2 - 3.8
10/12:30am 27.4 30.7 22.5 74 3.3 SSW 9 15 5 8 1008.7 - 3.8
10/12:00am 27.1 31.3 22.4 75 3.2 SW 4 7 2 4 1009.2 1009.1 3.8
 
Date/Time
EST
Temp
°C
App
Temp
°C
Dew
Point
Rel
Hum
%
Delta-T
°C
Wind Press
QNH
hPa
Press
MSL
hPa
Rain
since 9 am
mm
Dir
 
Spd
km/h
Gust
km/h
Spd
kts
Gust
kts
09/11:30pm 26.9 30.8 22.9 79 2.7 S 7 9 4 5 1009.5 - 3.8
09/11:00pm 26.7 30.8 23.3 81 2.3 SSE 7 11 4 6 1009.7 - 3.8
09/10:30pm 26.9 31.1 23.2 80 2.5 S 6 9 3 5 1010.0 - 3.8

Other Formats:

Comma delimited format used in spreadsheet applications
http://www.bom.gov.au/fwo/IDQ60801/IDQ60801.95292.axf

JavaScript Object Notation format (JSON) in row-major order
http://www.bom.gov.au/fwo/IDQ60801/IDQ60801.95292.json